Solon Mills, Illinois
Current Conditions -  °F | °C
As of 5:15 PM on Wednesday 22 Oct 2014 (Local Time) from KBUU Reporting Station
Clear Clear  
Wind Chill: 51°   Ceiling: Unl
Heat Index: 51°   Visibility: 10mi
Dew Point: 38°   Wind: 9mph
Humidity: 62%   Direction: 110°ESE
Pressure: 30.26"   Gusts: NA
Location:  42.44°N, 88.27°W
Report Text: KBUU 222215Z AUTO 11008KT 10SM CLR 11/04 A3026 RMK AO2 T01060036
Loading
Personal Weather Stations






























Interactive Weather Map
Tropical Storm Tracking
New forecast layout! Learn more

10-Day Weather Forecast

Advertisements
Track Severe Weather on mobile